Time;durP1;ratioP1;P1;durP2;ratioP2;P2;SDS_P1;SDS_P2;PMS_P1;PMS_P2;Temp;Humidity;BMP_temperature;BMP_pressure;BME280_temperature;BME280_humidity;BME280_pressure;Samples;Min_cycle;Max_cycle;Signal;HPM_P1;HPM_P2
2022/08/28 00:01:55;;;;;;;8.10;6.00;;;;;;;20.09;62.38;96320.73;107980;1269;25579;-81
2022/08/28 00:04:26;;;;;;;7.30;5.20;;;;;;;20.11;62.31;96323.86;107921;1269;39727;-82
2022/08/28 00:06:57;;;;;;;8.00;4.90;;;;;;;20.12;62.23;96322.59;108171;1271;24276;-83
2022/08/28 00:09:29;;;;;;;8.40;5.00;;;;;;;20.08;62.33;96319.27;108253;1269;22541;-82
2022/08/28 00:12:00;;;;;;;7.70;5.70;;;;;;;20.03;62.47;96321.66;108246;1267;22587;-83
2022/08/28 00:14:31;;;;;;;8.80;5.80;;;;;;;19.97;62.73;96323.13;108210;1269;27081;-84
2022/08/28 00:17:03;;;;;;;8.40;5.40;;;;;;;19.91;62.86;96318.81;108268;1269;22540;-84
2022/08/28 00:19:35;;;;;;;12.60;5.80;;;;;;;19.85;62.99;96322.11;107965;1269;23393;-84
2022/08/28 00:22:06;;;;;;;9.60;5.50;;;;;;;19.81;62.93;96324.62;108236;1269;22536;-84
2022/08/28 00:24:39;;;;;;;9.50;5.30;;;;;;;19.81;62.92;96321.48;108017;1271;68390;-84
2022/08/28 00:30:03;;;;;;;6.30;5.60;;;;;;;19.79;62.98;96318.83;108239;1269;22549;-84
2022/08/28 00:32:35;;;;;;;7.30;5.00;;;;;;;19.76;63.18;96319.11;108266;1269;23178;-84
2022/08/28 00:35:07;;;;;;;6.60;5.30;;;;;;;19.74;63.14;96319.61;108174;1269;40240;-83
2022/08/28 00:37:38;;;;;;;10.70;5.70;;;;;;;19.68;63.24;96317.67;108258;1269;22535;-83
2022/08/28 00:40:14;;;;;;;8.30;6.20;;;;;;;19.63;63.43;96322.61;108159;1271;25365;-83
2022/08/28 00:42:46;;;;;;;7.30;5.50;;;;;;;19.57;63.65;96325.23;108268;1269;22518;-83
2022/08/28 00:45:19;;;;;;;6.80;5.60;;;;;;;19.51;63.69;96324.80;108136;1269;47733;-83
2022/08/28 00:47:50;;;;;;;8.90;5.50;;;;;;;19.52;63.65;96327.13;108251;1269;26568;-83
2022/08/28 00:50:28;;;;;;;6.80;5.20;;;;;;;19.52;63.60;96326.11;108249;1269;22548;-83
2022/08/28 00:53:02;;;;;;;11.20;6.00;;;;;;;19.50;63.73;96325.39;108243;1269;22466;-83
2022/08/28 00:55:33;;;;;;;8.80;5.70;;;;;;;19.45;63.79;96324.73;108106;1269;30499;-83
2022/08/28 00:58:07;;;;;;;7.10;5.70;;;;;;;19.45;63.87;96323.56;108145;1269;22565;-83
2022/08/28 01:00:41;;;;;;;9.20;6.10;;;;;;;19.38;64.31;96320.66;108183;1271;22675;-83
2022/08/28 01:03:12;;;;;;;8.30;6.00;;;;;;;19.27;64.31;96321.13;108190;1271;22620;-82
2022/08/28 01:05:46;;;;;;;8.40;5.70;;;;;;;19.24;64.68;96321.80;108100;1271;34144;-82
2022/08/28 01:08:19;;;;;;;9.20;5.30;;;;;;;19.17;64.92;96321.78;108170;1271;22557;-82
2022/08/28 01:10:54;;;;;;;7.00;5.50;;;;;;;19.09;65.07;96322.15;108198;1271;22542;-82
2022/08/28 01:13:27;;;;;;;7.80;5.70;;;;;;;19.06;65.15;96312.61;108216;1271;23831;-82
2022/08/28 01:16:00;;;;;;;7.90;5.40;;;;;;;19.03;65.28;96315.67;108195;1271;22558;-82
2022/08/28 01:18:32;;;;;;;8.10;5.60;;;;;;;19.03;65.18;96312.23;108192;1270;25405;-82
2022/08/28 01:21:10;;;;;;;8.40;6.10;;;;;;;19.06;65.31;96316.08;108153;1271;22540;-82
2022/08/28 01:23:55;;;;;;;8.50;5.70;;;;;;;19.06;65.29;96312.78;108149;1271;24034;-83
2022/08/28 01:26:27;;;;;;;9.90;5.20;;;;;;;19.06;65.19;96314.60;108164;1271;23019;-83
2022/08/28 01:29:00;;;;;;;7.70;5.20;;;;;;;19.05;65.16;96311.58;108160;1271;22568;-83
2022/08/28 01:31:32;;;;;;;8.00;5.20;;;;;;;19.04;65.12;96315.93;108164;1270;22545;-84
2022/08/28 01:34:07;;;;;;;8.10;5.30;;;;;;;19.08;65.30;96316.65;108163;1271;24899;-83
2022/08/28 01:36:39;;;;;;;8.60;5.90;;;;;;;19.06;65.29;96315.63;108182;1271;26420;-83
2022/08/28 01:39:14;;;;;;;9.40;5.70;;;;;;;19.08;65.14;96316.89;108179;1271;22551;-83
2022/08/28 01:41:50;;;;;;;7.80;5.60;;;;;;;19.12;65.17;96322.00;108081;1271;22594;-83
2022/08/28 01:44:25;;;;;;;9.10;5.80;;;;;;;19.13;65.09;96319.33;108058;1271;26740;-84
2022/08/28 01:46:58;;;;;;;11.10;6.00;;;;;;;19.13;65.14;96324.62;108171;1270;23206;-83
2022/08/28 01:49:30;;;;;;;8.70;5.90;;;;;;;19.10;65.23;96326.16;108153;1270;25457;-83
2022/08/28 01:52:01;;;;;;;8.70;5.70;;;;;;;19.04;65.34;96324.38;107797;1271;25384;-83
2022/08/28 01:54:41;;;;;;;10.00;5.90;;;;;;;19.01;65.46;96326.43;107746;1271;31801;-83
2022/08/28 01:57:12;;;;;;;8.40;5.60;;;;;;;19.01;65.43;96322.92;107897;1271;22678;-83
2022/08/28 01:59:43;;;;;;;7.50;5.20;;;;;;;19.02;65.27;96323.95;107878;1271;22556;-83
2022/08/28 02:02:15;;;;;;;6.70;5.50;;;;;;;19.04;65.14;96323.70;108161;1271;22541;-84
2022/08/28 02:04:46;;;;;;;8.20;5.90;;;;;;;19.07;65.24;96328.01;108083;1271;23687;-84
2022/08/28 02:07:21;;;;;;;10.40;5.50;;;;;;;19.07;65.34;96326.77;108258;1269;22548;-83
2022/08/28 02:09:54;;;;;;;7.00;4.80;;;;;;;19.04;65.39;96322.31;108125;1271;22525;-83
2022/08/28 02:12:25;;;;;;;7.90;4.90;;;;;;;19.04;65.20;96325.77;108163;1271;22548;-83
2022/08/28 02:14:56;;;;;;;7.80;5.00;;;;;;;19.09;65.18;96326.20;108074;1271;29346;-83
2022/08/28 02:17:28;;;;;;;8.60;5.10;;;;;;;19.10;65.23;96332.30;108270;1269;22706;-83
2022/08/28 02:19:59;;;;;;;6.60;5.40;;;;;;;19.11;65.17;96331.33;108268;1269;22544;-83
2022/08/28 02:22:32;;;;;;;7.70;5.00;;;;;;;19.09;65.20;96334.67;108279;1269;22544;-83
2022/08/28 02:25:08;;;;;;;5.50;4.80;;;;;;;19.09;65.16;96332.34;108144;1269;33383;-84
2022/08/28 02:27:40;;;;;;;7.70;4.80;;;;;;;19.09;65.29;96331.58;108156;1271;22733;-82
2022/08/28 02:30:15;;;;;;;7.90;4.80;;;;;;;19.07;65.38;96331.84;108160;1271;22547;-82
2022/08/28 02:32:48;;;;;;;10.90;5.60;;;;;;;19.06;65.37;96333.50;108183;1271;22552;-82
2022/08/28 02:35:24;;;;;;;8.30;5.20;;;;;;;19.03;65.47;96327.80;108137;1269;32121;-81
2022/08/28 02:37:55;;;;;;;7.70;5.30;;;;;;;18.99;65.66;96326.07;108174;1269;24362;-82
2022/08/28 02:40:26;;;;;;;6.80;4.40;;;;;;;18.94;65.68;96321.94;108184;1269;22581;-81
2022/08/28 02:43:01;;;;;;;9.70;5.60;;;;;;;18.92;65.71;96321.73;108215;1269;22589;-81
2022/08/28 02:45:32;;;;;;;7.10;5.10;;;;;;;18.90;65.80;96325.27;108133;1269;29497;-81
2022/08/28 02:48:04;;;;;;;7.00;5.00;;;;;;;18.88;65.81;96331.52;108186;1269;22587;-81
2022/08/28 02:50:35;;;;;;;6.50;4.80;;;;;;;18.88;65.79;96330.73;108227;1268;22610;-81
2022/08/28 02:53:06;;;;;;;8.10;4.70;;;;;;;18.87;65.85;96331.41;108219;1269;23327;-81
2022/08/28 02:55:37;;;;;;;7.40;5.20;;;;;;;18.87;65.85;96330.17;108045;1269;82446;-81
2022/08/28 02:58:09;;;;;;;6.40;4.80;;;;;;;18.87;65.80;96331.18;108188;1269;22632;-81
2022/08/28 03:00:40;;;;;;;6.70;5.00;;;;;;;18.88;65.84;96332.66;108191;1269;22541;-81
2022/08/28 03:03:12;;;;;;;7.10;4.20;;;;;;;18.88;65.80;96331.61;108223;1269;22604;-81
2022/08/28 03:05:43;;;;;;;6.90;4.90;;;;;;;18.91;65.69;96331.39;108122;1269;43413;-82
2022/08/28 03:08:15;;;;;;;6.90;4.70;;;;;;;18.93;65.69;96328.91;108213;1269;23652;-81
2022/08/28 03:10:46;;;;;;;6.20;4.60;;;;;;;18.92;65.61;96333.02;108200;1269;22590;-82
2022/08/28 03:13:17;;;;;;;8.60;4.50;;;;;;;18.91;65.63;96334.23;108151;1269;22544;-82
2022/08/28 03:15:49;;;;;;;6.50;4.70;;;;;;;18.89;65.60;96331.55;107843;1269;27122;-82
2022/08/28 03:18:21;;;;;;;6.20;4.50;;;;;;;18.88;65.54;96327.67;107942;1269;23083;-82
2022/08/28 03:20:52;;;;;;;6.50;4.40;;;;;;;18.84;65.73;96327.38;107939;1269;22557;-82
2022/08/28 03:23:27;;;;;;;8.70;4.60;;;;;;;18.74;66.04;96331.67;108143;1270;22525;-82
2022/08/28 03:26:00;;;;;;;6.40;4.60;;;;;;;18.61;66.49;96341.27;108155;1269;23250;-82
2022/08/28 03:28:35;;;;;;;10.00;5.30;;;;;;;18.50;66.86;96344.41;108143;1271;25407;-82
2022/08/28 03:31:07;;;;;;;9.10;4.40;;;;;;;18.45;67.15;96353.13;108202;1271;22530;-82
2022/08/28 03:33:40;;;;;;;7.70;5.10;;;;;;;18.38;67.56;96357.30;108064;1271;41871;-82
2022/08/28 03:36:12;;;;;;;6.80;4.60;;;;;;;18.34;68.19;96365.70;108274;1269;24236;-82
2022/08/28 03:38:44;;;;;;;7.10;4.80;;;;;;;18.35;68.32;96368.56;108016;1269;22778;-82
2022/08/28 03:41:18;;;;;;;8.10;4.40;;;;;;;18.39;68.38;96371.13;108257;1269;22547;-82
2022/08/28 03:43:49;;;;;;;7.50;4.50;;;;;;;18.44;68.38;96374.42;108204;1269;25067;-82
2022/08/28 03:46:23;;;;;;;6.10;4.00;;;;;;;18.46;68.34;96376.81;107980;1269;22535;-83
2022/08/28 03:48:55;;;;;;;8.60;4.60;;;;;;;18.45;68.54;96380.29;108237;1269;22579;-83
2022/08/28 03:51:30;;;;;;;6.70;4.30;;;;;;;18.44;68.52;96382.16;108244;1269;22525;-81
2022/08/28 03:54:02;;;;;;;7.00;4.90;;;;;;;18.41;68.59;96382.09;107752;1271;49903;-82
2022/08/28 03:56:33;;;;;;;7.10;4.90;;;;;;;18.39;68.60;96387.70;107863;1269;22628;-82
2022/08/28 03:59:05;;;;;;;6.90;5.10;;;;;;;18.33;68.95;96390.28;108167;1269;22576;-81
2022/08/28 04:01:37;;;;;;;7.30;5.20;;;;;;;18.27;69.21;96384.31;108180;1269;22576;-81
2022/08/28 04:04:08;;;;;;;7.60;5.70;;;;;;;18.27;69.35;96388.91;108071;1269;29409;-82
2022/08/28 04:06:39;;;;;;;8.60;5.30;;;;;;;18.26;69.42;96393.31;108182;1269;25347;-82
2022/08/28 04:09:11;;;;;;;5.70;4.50;;;;;;;18.26;69.43;96401.23;108264;1269;24168;-81
2022/08/28 04:11:42;;;;;;;8.50;4.90;;;;;;;18.29;69.52;96403.70;108296;1267;25247;-82
2022/08/28 04:14:14;;;;;;;9.00;5.60;;;;;;;18.29;69.53;96408.85;108223;1269;23710;-81
2022/08/28 04:16:45;;;;;;;7.60;5.50;;;;;;;18.32;69.45;96407.41;107930;1269;22549;-82
2022/08/28 04:19:16;;;;;;;6.70;4.90;;;;;;;18.32;69.51;96415.61;107862;1269;22547;-82
2022/08/28 04:21:47;;;;;;;7.60;5.60;;;;;;;18.32;69.57;96417.86;107853;1269;22582;-82
2022/08/28 04:24:19;;;;;;;7.70;5.40;;;;;;;18.32;69.71;96424.14;107754;1269;46879;-82
2022/08/28 04:26:50;;;;;;;8.50;5.40;;;;;;;18.32;69.81;96428.50;107860;1269;22565;-82
2022/08/28 04:29:21;;;;;;;6.10;5.00;;;;;;;18.34;69.85;96438.61;107840;1269;22544;-83
2022/08/28 04:31:53;;;;;;;5.70;4.00;;;;;;;18.34;69.75;96440.31;107839;1269;25373;-83
2022/08/28 04:34:24;;;;;;;5.40;4.60;;;;;;;18.35;69.67;96449.86;108029;1269;41833;-83
2022/08/28 04:36:56;;;;;;;8.10;4.90;;;;;;;18.37;69.65;96447.38;107825;1269;22546;-83
2022/08/28 04:39:28;;;;;;;8.80;5.00;;;;;;;18.37;69.65;96447.91;108184;1269;23161;-84
2022/08/28 04:41:59;;;;;;;7.70;5.20;;;;;;;18.38;69.77;96443.42;108165;1269;22525;-84
2022/08/28 04:44:31;;;;;;;6.80;5.00;;;;;;;18.38;69.80;96441.27;108069;1269;30953;-83
2022/08/28 04:47:04;;;;;;;5.20;4.70;;;;;;;18.41;69.80;96441.20;108157;1269;22580;-83
2022/08/28 04:49:35;;;;;;;7.50;4.40;;;;;;;18.44;69.73;96434.92;108145;1269;22550;-81
2022/08/28 04:52:07;;;;;;;7.90;4.80;;;;;;;18.49;69.70;96431.35;108191;1269;22534;-79
2022/08/28 04:54:38;;;;;;;5.80;4.40;;;;;;;18.54;69.68;96429.30;107796;1269;36896;-80
2022/08/28 04:57:09;;;;;;;7.10;4.30;;;;;;;18.59;69.59;96433.21;107726;1271;22580;-75
2022/08/28 04:59:43;;;;;;;6.30;4.40;;;;;;;18.64;69.48;96426.29;107714;1269;22724;-75
2022/08/28 05:02:14;;;;;;;8.10;4.90;;;;;;;18.72;69.32;96426.64;107799;1269;22538;-74
2022/08/28 05:04:46;;;;;;;7.80;4.60;;;;;;;19.35;69.14;96427.11;107787;1269;25589;-75
2022/08/28 05:07:17;;;;;;;7.30;4.30;;;;;;;20.57;66.96;96420.87;107860;1269;24245;-75
2022/08/28 05:09:52;;;;;;;5.20;4.30;;;;;;;21.54;64.47;96416.13;107941;1269;24218;-76
2022/08/28 05:12:23;;;;;;;7.00;4.20;;;;;;;22.29;62.06;96411.46;107999;1269;22679;-75
2022/08/28 05:14:54;;;;;;;7.00;3.60;;;;;;;22.76;59.62;96409.95;107918;1269;30540;-75
2022/08/28 05:17:26;;;;;;;6.90;4.40;;;;;;;23.13;58.05;96412.34;107984;1269;25373;-73
2022/08/28 05:19:57;;;;;;;7.20;4.50;;;;;;;23.50;57.47;96410.70;107886;1269;22638;-75
2022/08/28 05:22:30;;;;;;;5.40;3.70;;;;;;;23.66;56.23;96410.68;107855;1269;22542;-75
2022/08/28 05:25:01;;;;;;;6.20;3.60;;;;;;;24.06;56.24;96408.06;107840;1269;69888;-75
2022/08/28 05:27:34;;;;;;;5.80;3.70;;;;;;;24.58;54.34;96402.71;107755;1271;22577;-75
2022/08/28 05:30:06;;;;;;;5.20;3.60;;;;;;;24.65;53.33;96400.39;107779;1271;22653;-74
2022/08/28 05:32:38;;;;;;;7.60;3.70;;;;;;;24.68;53.40;96395.76;107979;1269;22581;-80
2022/08/28 05:35:11;;;;;;;5.60;3.70;;;;;;;24.98;52.90;96398.09;107899;1270;134185;-76
2022/08/28 05:37:43;;;;;;;5.50;3.70;;;;;;;24.59;52.30;96398.14;108170;1272;24293;-76
2022/08/28 05:40:15;;;;;;;6.70;3.60;;;;;;;23.20;53.72;96398.34;107875;1271;22546;-76
2022/08/28 05:42:47;;;;;;;7.80;3.70;;;;;;;22.38;55.92;96393.34;107741;1271;22574;-75
2022/08/28 05:45:21;;;;;;;7.40;4.40;;;;;;;22.78;56.75;96398.25;107693;1271;31116;-74
2022/08/28 05:47:52;;;;;;;6.20;3.80;;;;;;;23.68;55.57;96403.36;107771;1271;25527;-75
2022/08/28 05:50:24;;;;;;;7.10;3.50;;;;;;;23.15;55.07;96398.83;107746;1272;25250;-76
2022/08/28 05:52:55;;;;;;;5.50;3.40;;;;;;;22.87;56.49;96399.25;107719;1270;26436;-73
2022/08/28 05:55:27;;;;;;;5.30;3.50;;;;;;;23.80;55.87;96402.56;107775;1269;30225;-76
2022/08/28 05:58:27;;;;;;;8.00;3.70;;;;;;;24.96;54.46;96393.19;107900;1269;22537;-75
2022/08/28 06:00:50;;;;;;;6.20;3.50;;;;;;;25.80;51.30;96385.48;107989;1269;22619;-72
2022/08/28 06:03:21;;;;;;;4.90;3.10;;;;;;;26.05;50.64;96391.77;107989;1269;25253;-76
2022/08/28 06:05:59;;;;;;;5.10;3.10;;;;;;;26.31;49.58;96387.02;107953;1269;26860;-72
2022/08/28 06:08:31;;;;;;;5.60;3.40;;;;;;;26.67;49.20;96381.25;107937;1270;22550;-74
2022/08/28 06:11:04;;;;;;;4.00;3.10;;;;;;;27.06;47.60;96382.89;107924;1269;22537;-75
2022/08/28 06:13:36;;;;;;;6.80;3.40;;;;;;;27.42;47.57;96385.00;107924;1269;38648;-75
2022/08/28 06:16:11;;;;;;;6.10;3.10;;;;;;;28.00;46.66;96389.63;107971;1269;22522;-74
2022/08/28 06:18:42;;;;;;;6.30;3.30;;;;;;;28.65;46.62;96386.59;107843;1269;22553;-77
2022/08/28 06:21:14;;;;;;;5.40;2.90;;;;;;;29.78;46.07;96385.98;107828;1269;25421;-75
2022/08/28 06:23:45;;;;;;;4.40;2.90;;;;;;;30.79;44.98;96388.75;107789;1269;35285;-75
2022/08/28 06:26:17;;;;;;;5.50;2.80;;;;;;;31.76;43.22;96387.58;107736;1272;22546;-77
2022/08/28 06:28:48;;;;;;;6.10;3.20;;;;;;;32.65;42.05;96389.63;107824;1269;22617;-74
2022/08/28 06:31:20;;;;;;;3.60;2.60;;;;;;;33.42;40.87;96386.91;107973;1269;22548;-74
2022/08/28 06:33:52;;;;;;;6.20;3.20;;;;;;;34.18;39.75;96382.13;107903;1269;40517;-74
2022/08/28 06:36:26;;;;;;;5.10;3.00;;;;;;;34.88;38.92;96381.21;108082;1270;25370;-74
2022/08/28 06:38:59;;;;;;;5.50;3.00;;;;;;;35.51;37.31;96378.94;108024;1270;22517;-74
2022/08/28 06:41:32;;;;;;;4.70;3.10;;;;;;;35.47;36.11;96380.13;108006;1270;22528;-74
2022/08/28 06:44:03;;;;;;;4.60;2.80;;;;;;;35.57;35.83;96378.49;107844;1270;65679;-74
2022/08/28 06:46:35;;;;;;;5.70;2.80;;;;;;;35.91;35.13;96373.51;107795;1271;22548;-74
2022/08/28 06:49:08;;;;;;;5.00;2.40;;;;;;;36.41;34.85;96376.63;107775;1271;22658;-74
2022/08/28 06:51:40;;;;;;;7.20;2.70;;;;;;;36.72;33.38;96369.49;107720;1271;22713;-74
2022/08/28 06:54:14;;;;;;;5.10;2.70;;;;;;;36.41;33.12;96362.36;107600;1271;55558;-75
2022/08/28 06:56:52;;;;;;;6.10;2.50;;;;;;;36.21;32.78;96358.72;107757;1271;22688;-75
2022/08/28 06:59:25;;;;;;;3.90;2.70;;;;;;;36.16;33.24;96357.35;107874;1271;22528;-74
2022/08/28 07:01:57;;;;;;;5.80;2.60;;;;;;;36.49;32.75;96357.36;107820;1271;25323;-74
2022/08/28 07:04:28;;;;;;;4.30;2.30;;;;;;;36.89;32.94;96358.87;107836;1269;72389;-73
2022/08/28 07:07:00;;;;;;;5.20;3.00;;;;;;;37.48;31.50;96358.79;108098;1269;22551;-73
2022/08/28 07:09:31;;;;;;;5.80;2.80;;;;;;;36.73;30.75;96358.14;108067;1269;22607;-71
2022/08/28 07:12:03;;;;;;;5.00;2.40;;;;;;;34.48;31.64;96354.08;107957;1272;22590;-72
2022/08/28 07:14:36;;;;;;;5.30;2.70;;;;;;;32.34;33.79;96357.34;107901;1269;24490;-75
2022/08/28 07:17:11;;;;;;;5.50;3.00;;;;;;;30.86;35.74;96361.65;107895;1271;22552;-74
2022/08/28 07:19:42;;;;;;;3.20;2.60;;;;;;;29.71;37.47;96368.83;107908;1271;24272;-74
2022/08/28 07:22:14;;;;;;;4.70;2.70;;;;;;;28.82;38.67;96372.27;107915;1271;25362;-74
2022/08/28 07:24:45;;;;;;;6.00;3.10;;;;;;;27.56;40.60;96372.18;107941;1269;61960;-73
2022/08/28 07:27:17;;;;;;;5.30;3.00;;;;;;;26.63;42.81;96373.16;108027;1269;25308;-74
2022/08/28 07:29:48;;;;;;;5.90;3.20;;;;;;;26.00;44.17;96374.84;107895;1271;22729;-74
2022/08/28 07:32:20;;;;;;;5.40;3.50;;;;;;;25.70;45.45;96370.30;108032;1269;24188;-73
2022/08/28 07:34:52;;;;;;;6.30;3.20;;;;;;;25.45;46.67;96366.61;107907;1269;46291;-73
2022/08/28 07:37:24;;;;;;;4.30;3.10;;;;;;;25.04;47.60;96371.25;107885;1271;25375;-73
2022/08/28 07:39:55;;;;;;;4.50;3.50;;;;;;;25.00;48.44;96374.31;107839;1271;22547;-73
2022/08/28 07:45:14;;;;;;;7.10;4.00;;;;;;;24.78;49.33;96375.63;107859;1269;26162;-73
2022/08/28 07:47:46;;;;;;;4.80;3.40;;;;;;;24.61;49.37;96375.02;107834;1269;28004;-73
2022/08/28 07:50:18;;;;;;;4.70;3.80;;;;;;;24.49;50.05;96378.41;107867;1269;22525;-72
2022/08/28 07:52:49;;;;;;;6.50;3.70;;;;;;;24.28;50.68;96382.08;107960;1269;22616;-73
2022/08/28 07:55:21;;;;;;;6.30;3.90;;;;;;;24.22;51.22;96384.09;107915;1269;23454;-73
2022/08/28 07:57:54;;;;;;;5.70;4.00;;;;;;;24.18;51.68;96382.41;108026;1269;22547;-73
2022/08/28 08:00:25;;;;;;;5.00;3.80;;;;;;;24.51;51.98;96386.09;107923;1269;22522;-73
2022/08/28 08:02:56;;;;;;;6.90;4.00;;;;;;;24.81;51.65;96386.58;107983;1269;24194;-73
2022/08/28 08:05:28;;;;;;;5.90;3.90;;;;;;;24.92;51.06;96389.05;107897;1270;27745;-73
2022/08/28 08:07:59;;;;;;;6.60;3.50;;;;;;;24.99;51.18;96391.90;107917;1269;22521;-73
2022/08/28 08:10:30;;;;;;;6.60;3.60;;;;;;;25.01;51.05;96396.48;107923;1269;22553;-73
2022/08/28 08:13:02;;;;;;;5.10;3.40;;;;;;;24.78;51.40;96397.70;107813;1271;22540;-72
2022/08/28 08:15:35;;;;;;;5.10;3.60;;;;;;;24.62;51.97;96395.94;107747;1271;31200;-73
2022/08/28 08:18:06;;;;;;;5.50;3.70;;;;;;;24.54;52.14;96398.12;107849;1271;22615;-73
2022/08/28 08:20:38;;;;;;;5.70;3.40;;;;;;;24.40;52.39;96392.73;107865;1271;23033;-73
2022/08/28 08:23:10;;;;;;;6.00;3.70;;;;;;;24.19;53.05;96394.11;107855;1271;22757;-73
2022/08/28 08:25:41;;;;;;;6.70;4.10;;;;;;;23.90;53.40;96397.98;107810;1271;25270;-73
2022/08/28 08:28:14;;;;;;;5.20;3.50;;;;;;;23.80;54.32;96399.96;107848;1271;25385;-73
2022/08/28 08:30:46;;;;;;;6.60;3.90;;;;;;;23.74;54.88;96400.11;107866;1271;22576;-73
2022/08/28 08:33:19;;;;;;;5.10;3.50;;;;;;;23.72;55.55;96403.02;107844;1271;22544;-73
2022/08/28 08:35:51;;;;;;;3.70;3.30;;;;;;;23.81;55.32;96410.11;107798;1271;24569;-73
2022/08/28 08:38:22;;;;;;;5.40;3.70;;;;;;;23.80;55.72;96411.78;107831;1271;24353;-73
2022/08/28 08:40:54;;;;;;;5.70;3.60;;;;;;;23.51;56.28;96418.36;107736;1271;24238;-73
2022/08/28 08:43:27;;;;;;;7.70;3.70;;;;;;;23.32;56.56;96424.12;107825;1271;22516;-72
2022/08/28 08:45:58;;;;;;;7.10;3.70;;;;;;;23.34;56.58;96425.84;107821;1271;22553;-81
2022/08/28 08:48:34;;;;;;;5.50;3.70;;;;;;;23.25;56.58;96424.56;106644;1271;22584;-81
2022/08/28 08:51:11;;;;;;;5.20;3.70;;;;;;;23.22;56.60;96425.91;107789;1271;22566;-81
2022/08/28 08:53:47;;;;;;;8.10;3.60;;;;;;;23.21;56.84;96428.65;107751;1271;58626;-80
2022/08/28 08:56:20;;;;;;;4.00;3.60;;;;;;;23.24;56.70;96428.25;107815;1269;24235;-80
2022/08/28 08:58:54;;;;;;;6.90;3.80;;;;;;;23.21;56.98;96432.30;107727;1271;25206;-80
2022/08/28 09:01:30;;;;;;;4.90;3.60;;;;;;;23.23;57.10;96429.63;107838;1270;25381;-81
2022/08/28 09:04:10;;;;;;;5.90;3.90;;;;;;;23.24;57.11;96430.80;107826;1271;23269;-81
2022/08/28 09:06:49;;;;;;;4.20;3.20;;;;;;;23.20;57.09;96429.58;107741;1271;23425;-80
2022/08/28 09:09:31;;;;;;;4.30;3.40;;;;;;;23.24;57.57;96432.59;107827;1271;22893;-80
2022/08/28 09:12:05;;;;;;;6.00;3.50;;;;;;;23.26;57.17;96429.91;107812;1271;24318;-81
2022/08/28 09:14:44;;;;;;;5.60;3.60;;;;;;;23.23;57.38;96432.57;107692;1269;33694;-80
2022/08/28 09:17:20;;;;;;;6.90;3.10;;;;;;;23.25;57.73;96432.83;107728;1269;22518;-80
2022/08/28 09:19:52;;;;;;;4.70;3.50;;;;;;;23.26;58.17;96432.54;107853;1270;25257;-81
2022/08/28 09:22:23;;;;;;;6.10;3.70;;;;;;;23.26;57.98;96433.46;107862;1269;22572;-80
2022/08/28 09:24:54;;;;;;;7.20;3.80;;;;;;;23.24;58.18;96433.83;107872;1270;26674;-81
2022/08/28 09:27:30;;;;;;;4.00;3.20;;;;;;;23.27;58.38;96436.56;107864;1269;22570;-81
2022/08/28 09:30:06;;;;;;;5.70;3.40;;;;;;;23.29;58.63;96438.30;107864;1270;22560;-81
2022/08/28 09:32:42;;;;;;;4.60;3.60;;;;;;;23.37;58.99;96441.42;107881;1270;22553;-80
2022/08/28 09:35:26;;;;;;;5.50;3.50;;;;;;;23.40;59.11;96442.02;107759;1271;23762;-80
2022/08/28 09:38:16;;;;;;;7.20;4.10;;;;;;;23.43;59.37;96442.36;107853;1269;25324;-80
2022/08/28 09:43:38;;;;;;;5.50;3.70;;;;;;;23.59;59.65;96445.70;107806;1270;27949;-78
2022/08/28 09:46:24;;;;;;;8.10;3.80;;;;;;;23.58;60.06;96446.23;107895;1269;22521;-79
2022/08/28 09:49:10;;;;;;;6.30;3.80;;;;;;;23.61;59.96;96447.50;107882;1269;22601;-79
2022/08/28 09:51:42;;;;;;;5.90;3.80;;;;;;;23.59;60.27;96449.64;107913;1270;24306;-80
2022/08/28 09:54:22;;;;;;;7.10;3.80;;;;;;;23.56;60.51;96446.58;107832;1269;28909;-81
2022/08/28 09:56:55;;;;;;;4.50;3.30;;;;;;;23.41;59.68;96443.17;107872;1270;22649;-80
2022/08/28 09:59:28;;;;;;;4.60;3.50;;;;;;;23.27;60.20;96440.51;107867;1270;23874;-80
2022/08/28 10:02:22;;;;;;;5.90;3.30;;;;;;;23.32;60.53;96441.73;107852;1269;22569;-81
2022/08/28 10:05:01;;;;;;;4.90;3.80;;;;;;;23.35;61.00;96441.16;107761;1269;37258;-83
2022/08/28 10:07:41;;;;;;;4.90;3.70;;;;;;;23.43;60.98;96444.99;107854;1271;22512;-82
2022/08/28 10:10:27;;;;;;;4.80;3.40;;;;;;;23.46;60.30;96450.59;107754;1271;22521;-81
2022/08/28 10:13:06;;;;;;;6.30;3.60;;;;;;;23.46;60.40;96451.83;107741;1271;22528;-82
2022/08/28 10:15:54;;;;;;;6.90;3.90;;;;;;;23.45;60.62;96446.56;107767;1271;30441;-81
2022/08/28 10:18:38;;;;;;;4.70;3.70;;;;;;;23.51;60.63;96447.96;107811;1269;24267;-81
2022/08/28 10:21:18;;;;;;;6.00;3.80;;;;;;;23.51;60.57;96448.12;107830;1269;22637;-80
2022/08/28 10:24:10;;;;;;;7.20;3.90;;;;;;;23.41;60.72;96449.52;107847;1270;26884;-79
2022/08/28 10:26:49;;;;;;;5.50;3.70;;;;;;;23.41;60.85;96446.50;107887;1269;22540;-79
2022/08/28 10:29:35;;;;;;;6.10;3.40;;;;;;;23.35;61.27;96446.17;107859;1270;22652;-79
2022/08/28 10:32:22;;;;;;;5.00;3.40;;;;;;;23.34;61.46;96448.09;107993;1271;22582;-79
2022/08/28 10:35:03;;;;;;;8.60;3.80;;;;;;;23.33;61.49;96446.15;107888;1270;28383;-82
2022/08/28 10:37:46;;;;;;;5.90;4.00;;;;;;;23.30;61.48;96445.89;107901;1269;22560;-80
2022/08/28 10:40:24;;;;;;;5.10;4.10;;;;;;;23.31;61.80;96446.36;107903;1271;22539;-78
2022/08/28 10:43:02;;;;;;;5.30;3.80;;;;;;;23.18;61.90;96448.64;107828;1271;22551;-78
2022/08/28 10:45:34;;;;;;;5.30;3.70;;;;;;;22.98;61.97;96446.48;107859;1269;25191;-79
2022/08/28 10:48:11;;;;;;;4.40;3.50;;;;;;;22.87;62.61;96445.23;107800;1270;22542;-81
2022/08/28 10:50:46;;;;;;;5.20;4.10;;;;;;;22.78;62.62;96447.05;107867;1270;23838;-80
2022/08/28 10:53:23;;;;;;;6.70;3.70;;;;;;;22.78;62.61;96447.59;107939;1271;24248;-80
2022/08/28 10:56:01;;;;;;;5.60;4.00;;;;;;;22.77;63.10;96446.88;107879;1271;27173;-80
2022/08/28 10:58:34;;;;;;;5.20;3.60;;;;;;;22.77;63.16;96441.17;107893;1271;22547;-85
2022/08/28 11:01:09;;;;;;;5.40;4.30;;;;;;;22.77;63.49;96442.61;107827;1271;24241;-76
2022/08/28 11:03:44;;;;;;;6.90;4.40;;;;;;;22.76;63.66;96440.84;107823;1271;42209;-81
2022/08/28 11:06:27;;;;;;;6.60;4.00;;;;;;;22.79;63.45;96441.88;107921;1270;22584;-80
2022/08/28 11:09:23;;;;;;;7.70;3.80;;;;;;;22.81;63.35;96442.55;107939;1271;22531;-83
2022/08/28 11:11:58;;;;;;;5.50;3.30;;;;;;;22.78;63.56;96442.33;107945;1270;22547;-82
2022/08/28 11:14:33;;;;;;;5.90;3.80;;;;;;;22.80;63.69;96442.05;107826;1269;34945;-84
2022/08/28 11:17:07;;;;;;;6.10;4.00;;;;;;;22.83;63.58;96442.52;107855;1271;22547;-82
2022/08/28 11:19:56;;;;;;;5.60;4.00;;;;;;;22.85;63.27;96442.88;107853;1271;22527;-81
2022/08/28 11:22:35;;;;;;;6.60;4.00;;;;;;;22.92;63.88;96441.44;107854;1269;23091;-82
2022/08/28 11:25:12;;;;;;;5.30;3.60;;;;;;;22.99;63.67;96443.10;107797;1271;49575;-82
2022/08/28 11:28:17;;;;;;;7.80;4.20;;;;;;;23.01;63.50;96443.73;107714;1271;22652;-82
2022/08/28 11:30:50;;;;;;;7.10;3.90;;;;;;;23.08;63.40;96446.16;107826;1271;24400;-83
2022/08/28 11:33:40;;;;;;;5.90;3.90;;;;;;;23.21;63.30;96448.45;108184;1271;24273;-82
2022/08/28 11:36:35;;;;;;;7.30;3.90;;;;;;;23.31;62.85;96449.67;107858;1271;22526;-80
2022/08/28 11:39:20;;;;;;;6.60;3.80;;;;;;;23.38;62.47;96449.58;108132;1271;22527;-80
2022/08/28 11:42:31;;;;;;;4.40;3.70;;;;;;;23.43;62.22;96447.55;107848;1271;22567;-82
2022/08/28 11:45:02;;;;;;;7.40;4.00;;;;;;;23.44;61.77;96446.70;107729;1270;27945;-80
2022/08/28 11:47:56;;;;;;;5.90;3.90;;;;;;;23.42;62.14;96442.02;107813;1271;22772;-81
2022/08/28 11:50:53;;;;;;;6.30;4.00;;;;;;;23.39;62.05;96445.02;107782;1271;22551;-83
2022/08/28 11:53:46;;;;;;;6.80;4.20;;;;;;;23.34;62.11;96444.23;107860;1271;22647;-82
2022/08/28 11:56:36;;;;;;;4.90;3.70;;;;;;;23.37;62.28;96442.27;107928;1271;22530;-82
2022/08/28 11:59:28;;;;;;;6.40;3.90;;;;;;;23.43;62.46;96442.90;107906;1271;22528;-83
2022/08/28 12:02:43;;;;;;;4.80;3.50;;;;;;;23.45;62.56;96439.13;107863;1271;22635;-82
2022/08/28 12:05:42;;;;;;;6.00;3.80;;;;;;;23.71;62.53;96437.02;107706;1271;28626;-85
2022/08/28 12:08:35;;;;;;;5.10;3.80;;;;;;;23.94;62.08;96432.52;107751;1271;22639;-85